sensor_id;sensor_type;location;lat;lon;timestamp;pressure;altitude;pressure_sealevel;temperature;humidity
18504;BME280;9381;54.244;10.074;2022-09-20T00:04:35;101237.19;;;10.78;100.00
18504;BME280;9381;54.244;10.074;2022-09-20T00:09:35;101247.84;;;10.86;100.00
18504;BME280;9381;54.244;10.074;2022-09-20T00:14:36;101242.22;;;10.94;100.00
18504;BME280;9381;54.244;10.074;2022-09-20T00:19:36;101251.59;;;10.98;100.00
18504;BME280;9381;54.244;10.074;2022-09-20T00:24:36;101251.41;;;10.99;100.00
18504;BME280;9381;54.244;10.074;2022-09-20T00:29:37;101254.53;;;11.03;100.00
18504;BME280;9381;54.244;10.074;2022-09-20T00:34:37;101253.28;;;11.05;100.00
18504;BME280;9381;54.244;10.074;2022-09-20T00:39:56;101259.72;;;10.98;100.00
18504;BME280;9381;54.244;10.074;2022-09-20T00:45:07;101263.25;;;10.98;100.00
18504;BME280;9381;54.244;10.074;2022-09-20T00:50:20;101260.31;;;11.00;100.00
18504;BME280;9381;54.244;10.074;2022-09-20T00:55:23;101262.84;;;11.01;100.00
18504;BME280;9381;54.244;10.074;2022-09-20T01:00:26;101265.75;;;11.00;100.00
18504;BME280;9381;54.244;10.074;2022-09-20T01:05:26;101264.50;;;10.96;100.00
18504;BME280;9381;54.244;10.074;2022-09-20T01:10:27;101276.19;;;10.96;100.00
18504;BME280;9381;54.244;10.074;2022-09-20T01:15:28;101278.03;;;10.89;100.00
18504;BME280;9381;54.244;10.074;2022-09-20T01:20:31;101271.16;;;10.87;100.00
18504;BME280;9381;54.244;10.074;2022-09-20T01:36:03;101280.69;;;10.76;100.00
18504;BME280;9381;54.244;10.074;2022-09-20T01:41:09;101281.13;;;10.80;100.00
18504;BME280;9381;54.244;10.074;2022-09-20T01:46:23;101293.22;;;10.77;100.00
18504;BME280;9381;54.244;10.074;2022-09-20T02:02:21;101301.06;;;10.59;100.00
18504;BME280;9381;54.244;10.074;2022-09-20T02:12:53;101310.56;;;10.49;100.00
18504;BME280;9381;54.244;10.074;2022-09-20T02:18:08;101304.72;;;10.45;100.00
18504;BME280;9381;54.244;10.074;2022-09-20T02:39:35;101323.03;;;10.43;100.00
18504;BME280;9381;54.244;10.074;2022-09-20T02:45:12;101320.34;;;10.50;100.00
18504;BME280;9381;54.244;10.074;2022-09-20T02:50:26;101329.88;;;10.39;100.00
18504;BME280;9381;54.244;10.074;2022-09-20T03:01:06;101334.56;;;10.18;100.00
18504;BME280;9381;54.244;10.074;2022-09-20T03:06:39;101341.81;;;9.90;100.00
18504;BME280;9381;54.244;10.074;2022-09-20T03:11:51;101344.28;;;9.85;100.00
18504;BME280;9381;54.244;10.074;2022-09-20T03:27:49;101355.56;;;9.95;100.00
18504;BME280;9381;54.244;10.074;2022-09-20T03:33:13;101353.56;;;10.03;100.00
18504;BME280;9381;54.244;10.074;2022-09-20T03:38:38;101351.56;;;10.12;100.00
18504;BME280;9381;54.244;10.074;2022-09-20T04:05:11;101355.75;;;10.14;100.00
18504;BME280;9381;54.244;10.074;2022-09-20T04:10:41;101365.84;;;10.06;100.00
18504;BME280;9381;54.244;10.074;2022-09-20T04:16:04;101364.09;;;9.92;100.00
18504;BME280;9381;54.244;10.074;2022-09-20T04:26:26;101377.75;;;9.63;100.00
18504;BME280;9381;54.244;10.074;2022-09-20T04:31:51;101380.09;;;9.45;100.00
18504;BME280;9381;54.244;10.074;2022-09-20T04:36:57;101390.25;;;9.43;100.00
18504;BME280;9381;54.244;10.074;2022-09-20T04:58:45;101389.25;;;9.08;100.00
18504;BME280;9381;54.244;10.074;2022-09-20T05:04:30;101396.66;;;9.00;100.00
18504;BME280;9381;54.244;10.074;2022-09-20T05:15:31;101396.84;;;8.98;100.00
18504;BME280;9381;54.244;10.074;2022-09-20T05:36:43;101422.72;;;8.93;100.00
18504;BME280;9381;54.244;10.074;2022-09-20T05:41:53;101424.00;;;8.97;100.00
18504;BME280;9381;54.244;10.074;2022-09-20T06:04:00;101438.06;;;9.28;100.00
18504;BME280;9381;54.244;10.074;2022-09-20T06:14:36;101441.81;;;9.48;100.00
18504;BME280;9381;54.244;10.074;2022-09-20T06:19:43;101444.63;;;9.61;100.00
18504;BME280;9381;54.244;10.074;2022-09-20T06:24:55;101443.75;;;9.75;100.00
18504;BME280;9381;54.244;10.074;2022-09-20T06:30:04;101449.88;;;9.90;100.00
18504;BME280;9381;54.244;10.074;2022-09-20T06:35:06;101450.28;;;10.08;100.00
18504;BME280;9381;54.244;10.074;2022-09-20T06:45:44;101458.22;;;10.37;100.00
18504;BME280;9381;54.244;10.074;2022-09-20T06:50:44;101463.69;;;10.50;100.00
18504;BME280;9381;54.244;10.074;2022-09-20T06:55:45;101467.31;;;10.63;100.00
18504;BME280;9381;54.244;10.074;2022-09-20T07:00:46;101476.97;;;10.79;100.00
18504;BME280;9381;54.244;10.074;2022-09-20T07:05:47;101479.38;;;10.95;100.00
18504;BME280;9381;54.244;10.074;2022-09-20T07:10:47;101481.75;;;11.11;100.00
18504;BME280;9381;54.244;10.074;2022-09-20T07:15:48;101490.34;;;11.27;100.00
18504;BME280;9381;54.244;10.074;2022-09-20T07:20:48;101494.97;;;11.40;100.00
18504;BME280;9381;54.244;10.074;2022-09-20T07:25:49;101491.66;;;11.51;100.00
18504;BME280;9381;54.244;10.074;2022-09-20T07:30:49;101498.41;;;11.68;100.00
18504;BME280;9381;54.244;10.074;2022-09-20T07:35:52;101502.41;;;11.84;100.00
18504;BME280;9381;54.244;10.074;2022-09-20T07:40:58;101504.50;;;12.02;100.00
18504;BME280;9381;54.244;10.074;2022-09-20T07:46:00;101497.22;;;12.22;100.00
18504;BME280;9381;54.244;10.074;2022-09-20T07:51:04;101504.09;;;12.24;100.00
18504;BME280;9381;54.244;10.074;2022-09-20T07:56:07;101505.13;;;12.49;100.00
18504;BME280;9381;54.244;10.074;2022-09-20T08:01:11;101513.25;;;12.62;100.00
18504;BME280;9381;54.244;10.074;2022-09-20T08:06:12;101516.75;;;12.82;100.00
18504;BME280;9381;54.244;10.074;2022-09-20T08:11:20;101515.50;;;13.04;100.00
18504;BME280;9381;54.244;10.074;2022-09-20T08:16:25;101523.19;;;13.20;99.05
18504;BME280;9381;54.244;10.074;2022-09-20T08:21:29;101524.75;;;13.41;97.03
18504;BME280;9381;54.244;10.074;2022-09-20T08:26:30;101523.22;;;13.58;97.22
18504;BME280;9381;54.244;10.074;2022-09-20T08:31:32;101529.00;;;13.68;94.96
18504;BME280;9381;54.244;10.074;2022-09-20T08:36:39;101531.38;;;13.95;95.15
18504;BME280;9381;54.244;10.074;2022-09-20T08:42:23;101536.66;;;14.21;90.99
18504;BME280;9381;54.244;10.074;2022-09-20T08:47:30;101542.38;;;14.38;90.65
18504;BME280;9381;54.244;10.074;2022-09-20T08:52:36;101540.22;;;14.46;88.84
18504;BME280;9381;54.244;10.074;2022-09-20T08:57:39;101549.34;;;14.58;88.91
18504;BME280;9381;54.244;10.074;2022-09-20T09:02:40;101557.16;;;14.73;87.82
18504;BME280;9381;54.244;10.074;2022-09-20T09:07:40;101544.47;;;14.84;87.17
18504;BME280;9381;54.244;10.074;2022-09-20T09:12:42;101543.81;;;15.07;87.56
18504;BME280;9381;54.244;10.074;2022-09-20T09:17:45;101552.00;;;15.25;85.12
18504;BME280;9381;54.244;10.074;2022-09-20T09:22:47;101549.13;;;15.38;82.01
18504;BME280;9381;54.244;10.074;2022-09-20T09:33:25;101553.72;;;15.73;78.82
18504;BME280;9381;54.244;10.074;2022-09-20T09:38:35;101566.53;;;16.32;77.31
18504;BME280;9381;54.244;10.074;2022-09-20T09:43:36;101561.03;;;16.61;75.64
18504;BME280;9381;54.244;10.074;2022-09-20T09:48:39;101553.88;;;17.06;73.06
18504;BME280;9381;54.244;10.074;2022-09-20T09:53:41;101554.00;;;18.29;71.14
18504;BME280;9381;54.244;10.074;2022-09-20T10:09:54;101560.75;;;22.29;57.31
18504;BME280;9381;54.244;10.074;2022-09-20T10:20:33;101549.81;;;24.21;52.58
18504;BME280;9381;54.244;10.074;2022-09-20T10:36:25;101550.13;;;25.43;44.31
18504;BME280;9381;54.244;10.074;2022-09-20T10:41:45;101544.19;;;25.96;45.24
18504;BME280;9381;54.244;10.074;2022-09-20T10:47:12;101538.97;;;26.64;46.55
18504;BME280;9381;54.244;10.074;2022-09-20T10:52:32;101553.16;;;26.44;46.46
18504;BME280;9381;54.244;10.074;2022-09-20T11:13:27;101572.59;;;25.13;42.35
18504;BME280;9381;54.244;10.074;2022-09-20T11:18:47;101573.56;;;25.50;43.23
18504;BME280;9381;54.244;10.074;2022-09-20T11:29:21;101578.03;;;25.93;43.17
18504;BME280;9381;54.244;10.074;2022-09-20T11:34:29;101580.53;;;26.69;44.34
18504;BME280;9381;54.244;10.074;2022-09-20T11:39:41;101580.22;;;27.02;43.10
18504;BME280;9381;54.244;10.074;2022-09-20T11:44:43;101581.88;;;27.35;42.63
18504;BME280;9381;54.244;10.074;2022-09-20T11:55:26;101582.78;;;27.17;41.73
18504;BME280;9381;54.244;10.074;2022-09-20T12:00:32;101587.84;;;26.78;39.25
18504;BME280;9381;54.244;10.074;2022-09-20T12:05:37;101585.94;;;26.60;43.56
18504;BME280;9381;54.244;10.074;2022-09-20T12:10:38;101580.63;;;26.96;43.04
18504;BME280;9381;54.244;10.074;2022-09-20T12:15:39;101592.53;;;26.96;42.86
18504;BME280;9381;54.244;10.074;2022-09-20T12:36:17;101598.38;;;25.60;42.02
18504;BME280;9381;54.244;10.074;2022-09-20T12:41:19;101600.31;;;25.88;43.00
18504;BME280;9381;54.244;10.074;2022-09-20T12:46:41;101604.81;;;25.79;43.41
18504;BME280;9381;54.244;10.074;2022-09-20T12:51:49;101605.75;;;25.23;44.69
18504;BME280;9381;54.244;10.074;2022-09-20T12:57:17;101597.19;;;25.14;44.71
18504;BME280;9381;54.244;10.074;2022-09-20T13:02:53;101607.75;;;24.84;43.71
18504;BME280;9381;54.244;10.074;2022-09-20T13:07:59;101602.41;;;24.16;43.51
18504;BME280;9381;54.244;10.074;2022-09-20T13:13:14;101599.22;;;23.89;45.63
18504;BME280;9381;54.244;10.074;2022-09-20T13:18:16;101605.31;;;23.76;45.00
18504;BME280;9381;54.244;10.074;2022-09-20T13:23:28;101598.81;;;23.12;46.25
18504;BME280;9381;54.244;10.074;2022-09-20T13:28:45;101600.78;;;22.86;47.95
18504;BME280;9381;54.244;10.074;2022-09-20T13:33:48;101602.69;;;22.41;46.58
18504;BME280;9381;54.244;10.074;2022-09-20T13:38:48;101605.63;;;22.14;48.71
18504;BME280;9381;54.244;10.074;2022-09-20T13:43:49;101609.69;;;21.87;47.54
18504;BME280;9381;54.244;10.074;2022-09-20T13:49:08;101619.56;;;21.78;48.70
18504;BME280;9381;54.244;10.074;2022-09-20T13:59:22;101620.97;;;21.39;48.02
18504;BME280;9381;54.244;10.074;2022-09-20T14:04:24;101626.38;;;21.24;48.47
18504;BME280;9381;54.244;10.074;2022-09-20T14:14:28;101631.97;;;20.71;50.43
18504;BME280;9381;54.244;10.074;2022-09-20T14:19:31;101622.78;;;20.56;51.53
18504;BME280;9381;54.244;10.074;2022-09-20T14:24:35;101627.19;;;20.57;51.76
18504;BME280;9381;54.244;10.074;2022-09-20T14:34:42;101625.41;;;20.46;51.62
18504;BME280;9381;54.244;10.074;2022-09-20T14:39:52;101631.63;;;20.36;51.42
18504;BME280;9381;54.244;10.074;2022-09-20T14:44:54;101636.13;;;20.21;51.17
18504;BME280;9381;54.244;10.074;2022-09-20T14:49:54;101638.13;;;20.04;51.20
18504;BME280;9381;54.244;10.074;2022-09-20T15:00:11;101644.78;;;19.48;52.73
18504;BME280;9381;54.244;10.074;2022-09-20T15:10:23;101638.25;;;19.16;52.59
18504;BME280;9381;54.244;10.074;2022-09-20T15:15:23;101641.22;;;19.15;53.95
18504;BME280;9381;54.244;10.074;2022-09-20T15:20:24;101650.63;;;19.02;53.54
18504;BME280;9381;54.244;10.074;2022-09-20T15:25:24;101647.66;;;18.87;54.61
18504;BME280;9381;54.244;10.074;2022-09-20T15:30:25;101655.03;;;18.70;54.02
18504;BME280;9381;54.244;10.074;2022-09-20T15:35:25;101660.72;;;18.52;55.04
18504;BME280;9381;54.244;10.074;2022-09-20T15:40:26;101672.13;;;18.33;57.11
18504;BME280;9381;54.244;10.074;2022-09-20T15:45:27;101668.41;;;18.27;56.74
18504;BME280;9381;54.244;10.074;2022-09-20T15:50:28;101668.59;;;18.09;56.43
18504;BME280;9381;54.244;10.074;2022-09-20T15:55:28;101675.22;;;17.86;57.54
18504;BME280;9381;54.244;10.074;2022-09-20T16:00:29;101680.00;;;17.56;58.79
18504;BME280;9381;54.244;10.074;2022-09-20T16:05:29;101680.59;;;17.35;60.01
18504;BME280;9381;54.244;10.074;2022-09-20T16:10:29;101686.06;;;17.23;62.35
18504;BME280;9381;54.244;10.074;2022-09-20T16:15:31;101696.03;;;16.95;64.27
18504;BME280;9381;54.244;10.074;2022-09-20T16:20:32;101700.97;;;16.86;66.06
18504;BME280;9381;54.244;10.074;2022-09-20T16:25:32;101701.09;;;16.80;67.07
18504;BME280;9381;54.244;10.074;2022-09-20T16:30:32;101714.59;;;16.75;67.26
18504;BME280;9381;54.244;10.074;2022-09-20T16:35:33;101716.00;;;16.66;68.25
18504;BME280;9381;54.244;10.074;2022-09-20T16:40:33;101721.19;;;16.56;70.25
18504;BME280;9381;54.244;10.074;2022-09-20T16:45:34;101720.47;;;16.49;71.35
18504;BME280;9381;54.244;10.074;2022-09-20T16:50:35;101733.97;;;16.44;72.89
18504;BME280;9381;54.244;10.074;2022-09-20T16:55:35;101726.25;;;16.23;74.33
18504;BME280;9381;54.244;10.074;2022-09-20T17:00:36;101741.41;;;16.01;74.30
18504;BME280;9381;54.244;10.074;2022-09-20T17:05:36;101747.53;;;15.78;75.89
18504;BME280;9381;54.244;10.074;2022-09-20T17:10:37;101737.06;;;15.57;76.35
18504;BME280;9381;54.244;10.074;2022-09-20T17:15:37;101746.06;;;15.40;77.41
18504;BME280;9381;54.244;10.074;2022-09-20T17:20:38;101757.94;;;15.21;78.12
18504;BME280;9381;54.244;10.074;2022-09-20T17:25:40;101764.78;;;14.99;79.48
18504;BME280;9381;54.244;10.074;2022-09-20T17:30:43;101775.19;;;14.84;80.15
18504;BME280;9381;54.244;10.074;2022-09-20T17:35:50;101771.91;;;14.69;80.72
18504;BME280;9381;54.244;10.074;2022-09-20T17:41:02;101783.72;;;14.50;81.48
18504;BME280;9381;54.244;10.074;2022-09-20T17:51:12;101786.59;;;14.11;82.96
18504;BME280;9381;54.244;10.074;2022-09-20T17:56:13;101796.66;;;14.04;83.19
18504;BME280;9381;54.244;10.074;2022-09-20T18:01:17;101794.16;;;13.90;84.41
18504;BME280;9381;54.244;10.074;2022-09-20T18:06:28;101801.28;;;13.91;84.62
18504;BME280;9381;54.244;10.074;2022-09-20T18:11:32;101810.69;;;13.88;85.67
18504;BME280;9381;54.244;10.074;2022-09-20T18:16:33;101815.06;;;13.89;85.81
18504;BME280;9381;54.244;10.074;2022-09-20T18:21:35;101827.88;;;13.56;86.47
18504;BME280;9381;54.244;10.074;2022-09-20T18:26:37;101835.59;;;13.33;86.41
18504;BME280;9381;54.244;10.074;2022-09-20T18:31:40;101838.31;;;13.20;87.08
18504;BME280;9381;54.244;10.074;2022-09-20T18:36:43;101839.31;;;13.06;87.18
18504;BME280;9381;54.244;10.074;2022-09-20T18:41:44;101846.41;;;12.94;87.62
18504;BME280;9381;54.244;10.074;2022-09-20T18:46:45;101849.28;;;12.86;87.19
18504;BME280;9381;54.244;10.074;2022-09-20T18:51:46;101858.66;;;12.77;87.51
18504;BME280;9381;54.244;10.074;2022-09-20T18:56:49;101861.06;;;12.59;87.62
18504;BME280;9381;54.244;10.074;2022-09-20T19:12:29;101877.53;;;12.51;89.21
18504;BME280;9381;54.244;10.074;2022-09-20T19:23:40;101881.13;;;12.24;90.07
18504;BME280;9381;54.244;10.074;2022-09-20T19:28:42;101884.81;;;12.10;91.13
18504;BME280;9381;54.244;10.074;2022-09-20T19:33:42;101881.06;;;12.11;91.25
18504;BME280;9381;54.244;10.074;2022-09-20T19:39:02;101894.00;;;12.09;90.61
18504;BME280;9381;54.244;10.074;2022-09-20T19:44:42;101890.63;;;12.07;90.98
18504;BME280;9381;54.244;10.074;2022-09-20T19:49:54;101899.78;;;12.06;90.37
18504;BME280;9381;54.244;10.074;2022-09-20T19:54:55;101908.78;;;12.07;91.04
18504;BME280;9381;54.244;10.074;2022-09-20T19:59:56;101915.50;;;12.17;91.25
18504;BME280;9381;54.244;10.074;2022-09-20T20:04:57;101920.25;;;12.09;91.36
18504;BME280;9381;54.244;10.074;2022-09-20T20:15:11;101923.53;;;11.77;91.95
18504;BME280;9381;54.244;10.074;2022-09-20T20:30:46;101923.94;;;11.53;92.39
18504;BME280;9381;54.244;10.074;2022-09-20T20:35:58;101926.09;;;11.58;92.60
18504;BME280;9381;54.244;10.074;2022-09-20T20:46:08;101931.09;;;11.61;93.08
18504;BME280;9381;54.244;10.074;2022-09-20T20:51:20;101944.03;;;11.59;93.00
18504;BME280;9381;54.244;10.074;2022-09-20T20:56:26;101945.75;;;11.66;92.71
18504;BME280;9381;54.244;10.074;2022-09-20T21:01:33;101952.88;;;11.52;92.49
18504;BME280;9381;54.244;10.074;2022-09-20T21:06:36;101954.44;;;11.41;92.60
18504;BME280;9381;54.244;10.074;2022-09-20T21:11:38;101957.00;;;11.28;92.96
18504;BME280;9381;54.244;10.074;2022-09-20T21:16:42;101966.94;;;11.21;92.92
18504;BME280;9381;54.244;10.074;2022-09-20T21:21:44;101969.34;;;11.16;93.20
18504;BME280;9381;54.244;10.074;2022-09-20T21:26:45;101969.34;;;11.16;93.19
18504;BME280;9381;54.244;10.074;2022-09-20T21:31:45;101983.28;;;11.13;92.66
18504;BME280;9381;54.244;10.074;2022-09-20T21:36:46;101975.34;;;11.11;92.87
18504;BME280;9381;54.244;10.074;2022-09-20T21:41:46;101979.56;;;10.99;93.27
18504;BME280;9381;54.244;10.074;2022-09-20T21:46:47;101978.72;;;10.99;93.30
18504;BME280;9381;54.244;10.074;2022-09-20T21:51:49;101980.81;;;10.82;93.94
18504;BME280;9381;54.244;10.074;2022-09-20T21:56:52;101972.84;;;10.81;94.19
18504;BME280;9381;54.244;10.074;2022-09-20T22:01:54;101977.16;;;10.75;93.40
18504;BME280;9381;54.244;10.074;2022-09-20T22:06:55;101989.78;;;10.83;94.37
18504;BME280;9381;54.244;10.074;2022-09-20T22:11:55;101997.34;;;10.73;93.99
18504;BME280;9381;54.244;10.074;2022-09-20T22:16:56;102004.53;;;10.66;94.26
18504;BME280;9381;54.244;10.074;2022-09-20T22:21:58;102010.66;;;10.60;93.94
18504;BME280;9381;54.244;10.074;2022-09-20T22:26:58;101997.50;;;10.57;94.67
18504;BME280;9381;54.244;10.074;2022-09-20T22:31:59;102010.47;;;10.47;94.07
18504;BME280;9381;54.244;10.074;2022-09-20T22:37:00;102010.66;;;10.45;94.51
18504;BME280;9381;54.244;10.074;2022-09-20T22:42:00;102015.88;;;10.47;95.28
18504;BME280;9381;54.244;10.074;2022-09-20T22:47:00;102017.91;;;10.45;94.84
18504;BME280;9381;54.244;10.074;2022-09-20T22:52:01;102015.31;;;10.37;94.82
18504;BME280;9381;54.244;10.074;2022-09-20T22:57:01;102021.81;;;10.28;94.31
18504;BME280;9381;54.244;10.074;2022-09-20T23:02:01;102020.97;;;10.27;94.21
18504;BME280;9381;54.244;10.074;2022-09-20T23:07:02;102022.56;;;10.22;94.58
18504;BME280;9381;54.244;10.074;2022-09-20T23:12:02;102024.50;;;10.13;95.51
18504;BME280;9381;54.244;10.074;2022-09-20T23:17:02;102015.91;;;10.10;95.22
18504;BME280;9381;54.244;10.074;2022-09-20T23:22:03;102028.94;;;10.06;95.30
18504;BME280;9381;54.244;10.074;2022-09-20T23:27:03;102033.50;;;10.06;95.11
18504;BME280;9381;54.244;10.074;2022-09-20T23:32:03;102039.56;;;10.08;95.36
18504;BME280;9381;54.244;10.074;2022-09-20T23:37:04;102047.66;;;10.08;95.40
18504;BME280;9381;54.244;10.074;2022-09-20T23:42:05;102043.66;;;10.04;94.85
18504;BME280;9381;54.244;10.074;2022-09-20T23:47:06;102042.63;;;10.05;94.48
18504;BME280;9381;54.244;10.074;2022-09-20T23:52:06;102040.34;;;9.94;94.70
18504;BME280;9381;54.244;10.074;2022-09-20T23:57:07;102045.97;;;9.84;94.80
